sensor_id;sensor_type;location;lat;lon;timestamp;temperature;humidity
15184;DHT22;7693;49.266;7.104;2023-07-08T01:51:00;20.20;92.20
15184;DHT22;7693;49.266;7.104;2023-07-08T01:53:33;20.30;92.50
15184;DHT22;7693;49.266;7.104;2023-07-08T01:55:59;20.30;92.60
15184;DHT22;7693;49.266;7.104;2023-07-08T01:58:25;20.30;92.60
15184;DHT22;7693;49.266;7.104;2023-07-08T02:00:51;20.30;92.70
15184;DHT22;7693;49.266;7.104;2023-07-08T02:03:17;20.30;92.70
15184;DHT22;7693;49.266;7.104;2023-07-08T02:05:43;20.30;92.80
15184;DHT22;7693;49.266;7.104;2023-07-08T02:08:08;20.30;92.90
15184;DHT22;7693;49.266;7.104;2023-07-08T02:10:34;20.30;92.90
15184;DHT22;7693;49.266;7.104;2023-07-08T02:13:00;20.20;92.90
15184;DHT22;7693;49.266;7.104;2023-07-08T02:15:26;20.20;93.00
15184;DHT22;7693;49.266;7.104;2023-07-08T02:17:51;20.20;93.00
15184;DHT22;7693;49.266;7.104;2023-07-08T02:20:17;20.10;93.10
15184;DHT22;7693;49.266;7.104;2023-07-08T02:22:43;20.10;93.20
15184;DHT22;7693;49.266;7.104;2023-07-08T02:25:08;20.10;93.30
15184;DHT22;7693;49.266;7.104;2023-07-08T02:27:37;20.10;93.50
15184;DHT22;7693;49.266;7.104;2023-07-08T02:30:04;20.00;93.60
15184;DHT22;7693;49.266;7.104;2023-07-08T02:32:30;19.90;93.60
15184;DHT22;7693;49.266;7.104;2023-07-08T02:34:55;19.80;93.60
15184;DHT22;7693;49.266;7.104;2023-07-08T02:37:21;19.80;93.80
15184;DHT22;7693;49.266;7.104;2023-07-08T02:39:46;19.70;94.20
15184;DHT22;7693;49.266;7.104;2023-07-08T02:42:12;19.60;93.90
15184;DHT22;7693;49.266;7.104;2023-07-08T02:44:38;19.50;94.10
15184;DHT22;7693;49.266;7.104;2023-07-08T02:47:03;19.50;94.20
15184;DHT22;7693;49.266;7.104;2023-07-08T02:49:30;19.50;94.30
15184;DHT22;7693;49.266;7.104;2023-07-08T02:51:55;19.50;94.40
15184;DHT22;7693;49.266;7.104;2023-07-08T02:54:21;19.50;94.40
15184;DHT22;7693;49.266;7.104;2023-07-08T02:56:46;19.40;94.30
15184;DHT22;7693;49.266;7.104;2023-07-08T02:59:12;19.40;94.30
15184;DHT22;7693;49.266;7.104;2023-07-08T03:01:37;19.30;94.30
15184;DHT22;7693;49.266;7.104;2023-07-08T03:04:08;19.20;94.50
15184;DHT22;7693;49.266;7.104;2023-07-08T03:06:34;19.20;94.80
15184;DHT22;7693;49.266;7.104;2023-07-08T03:09:00;19.20;94.80
15184;DHT22;7693;49.266;7.104;2023-07-08T03:11:25;19.20;94.80
15184;DHT22;7693;49.266;7.104;2023-07-08T03:13:51;19.10;94.80
15184;DHT22;7693;49.266;7.104;2023-07-08T03:16:16;19.00;95.00
15184;DHT22;7693;49.266;7.104;2023-07-08T03:18:42;19.00;95.10
15184;DHT22;7693;49.266;7.104;2023-07-08T03:21:17;19.00;95.20
15184;DHT22;7693;49.266;7.104;2023-07-08T03:23:44;19.00;95.40
15184;DHT22;7693;49.266;7.104;2023-07-08T03:26:17;19.00;95.40
15184;DHT22;7693;49.266;7.104;2023-07-08T03:28:45;19.00;95.50
15184;DHT22;7693;49.266;7.104;2023-07-08T03:31:10;19.00;95.40
15184;DHT22;7693;49.266;7.104;2023-07-08T03:33:36;19.00;95.50
15184;DHT22;7693;49.266;7.104;2023-07-08T03:36:03;19.00;95.50
15184;DHT22;7693;49.266;7.104;2023-07-08T03:38:29;18.90;95.60
15184;DHT22;7693;49.266;7.104;2023-07-08T03:40:54;18.90;95.70
15184;DHT22;7693;49.266;7.104;2023-07-08T03:43:20;18.90;95.70
15184;DHT22;7693;49.266;7.104;2023-07-08T03:45:46;18.80;95.80
15184;DHT22;7693;49.266;7.104;2023-07-08T03:48:12;18.80;95.90
15184;DHT22;7693;49.266;7.104;2023-07-08T03:50:38;18.80;96.00
15184;DHT22;7693;49.266;7.104;2023-07-08T03:53:04;18.80;96.00
15184;DHT22;7693;49.266;7.104;2023-07-08T03:55:30;18.70;96.00
15184;DHT22;7693;49.266;7.104;2023-07-08T03:57:55;18.70;96.10
15184;DHT22;7693;49.266;7.104;2023-07-08T04:00:21;18.70;96.30
15184;DHT22;7693;49.266;7.104;2023-07-08T04:02:47;18.70;96.40
15184;DHT22;7693;49.266;7.104;2023-07-08T04:05:18;18.70;96.40
15184;DHT22;7693;49.266;7.104;2023-07-08T04:07:45;18.70;96.60
15184;DHT22;7693;49.266;7.104;2023-07-08T14:43:27;31.70;66.00
15184;DHT22;7693;49.266;7.104;2023-07-08T14:45:55;31.70;66.80
15184;DHT22;7693;49.266;7.104;2023-07-08T14:48:21;31.80;67.00
15184;DHT22;7693;49.266;7.104;2023-07-08T14:50:47;32.00;67.80
15184;DHT22;7693;49.266;7.104;2023-07-08T14:53:17;32.10;65.70
15184;DHT22;7693;49.266;7.104;2023-07-08T14:55:45;32.10;64.70
15184;DHT22;7693;49.266;7.104;2023-07-08T15:00:45;32.10;64.90
15184;DHT22;7693;49.266;7.104;2023-07-08T15:03:11;32.30;65.70
15184;DHT22;7693;49.266;7.104;2023-07-08T15:05:36;32.30;64.90
15184;DHT22;7693;49.266;7.104;2023-07-08T15:08:02;32.20;64.30
15184;DHT22;7693;49.266;7.104;2023-07-08T15:10:30;32.10;64.20
15184;DHT22;7693;49.266;7.104;2023-07-08T15:12:59;32.10;64.70
15184;DHT22;7693;49.266;7.104;2023-07-08T15:17:56;32.10;63.80
15184;DHT22;7693;49.266;7.104;2023-07-08T15:20:22;32.10;64.10
15184;DHT22;7693;49.266;7.104;2023-07-08T15:22:47;32.10;63.70
15184;DHT22;7693;49.266;7.104;2023-07-08T15:25:14;32.00;63.00
15184;DHT22;7693;49.266;7.104;2023-07-08T15:27:42;31.90;63.40
15184;DHT22;7693;49.266;7.104;2023-07-08T15:30:20;31.90;63.30
15184;DHT22;7693;49.266;7.104;2023-07-08T15:32:46;31.90;63.40
15184;DHT22;7693;49.266;7.104;2023-07-08T15:35:17;31.90;63.60
15184;DHT22;7693;49.266;7.104;2023-07-08T15:37:44;31.90;63.00
15184;DHT22;7693;49.266;7.104;2023-07-08T15:40:13;31.80;63.10
15184;DHT22;7693;49.266;7.104;2023-07-08T15:42:39;31.60;62.40
15184;DHT22;7693;49.266;7.104;2023-07-08T15:45:26;31.40;62.80
15184;DHT22;7693;49.266;7.104;2023-07-08T15:47:53;31.30;62.30
15184;DHT22;7693;49.266;7.104;2023-07-08T15:50:21;31.20;62.90
15184;DHT22;7693;49.266;7.104;2023-07-08T15:52:47;31.20;63.20
15184;DHT22;7693;49.266;7.104;2023-07-08T15:55:14;31.20;63.20
15184;DHT22;7693;49.266;7.104;2023-07-08T15:57:52;31.10;62.60
15184;DHT22;7693;49.266;7.104;2023-07-08T16:00:22;31.10;63.30
15184;DHT22;7693;49.266;7.104;2023-07-08T16:02:51;31.20;63.50
15184;DHT22;7693;49.266;7.104;2023-07-08T16:05:18;31.30;63.30
15184;DHT22;7693;49.266;7.104;2023-07-08T16:07:45;31.40;63.40
15184;DHT22;7693;49.266;7.104;2023-07-08T16:10:12;31.50;63.20
15184;DHT22;7693;49.266;7.104;2023-07-08T16:12:38;31.50;62.80
15184;DHT22;7693;49.266;7.104;2023-07-08T16:15:04;31.50;62.50
15184;DHT22;7693;49.266;7.104;2023-07-08T16:17:33;31.50;62.60
15184;DHT22;7693;49.266;7.104;2023-07-08T16:20:00;31.60;63.30
15184;DHT22;7693;49.266;7.104;2023-07-08T16:22:26;31.60;62.60
15184;DHT22;7693;49.266;7.104;2023-07-08T16:24:51;31.60;62.70
15184;DHT22;7693;49.266;7.104;2023-07-08T16:27:17;31.40;61.70
15184;DHT22;7693;49.266;7.104;2023-07-08T16:29:42;31.20;61.70
15184;DHT22;7693;49.266;7.104;2023-07-08T16:32:11;31.10;62.40
15184;DHT22;7693;49.266;7.104;2023-07-08T16:34:38;31.10;62.40
15184;DHT22;7693;49.266;7.104;2023-07-08T16:37:04;31.20;62.60
15184;DHT22;7693;49.266;7.104;2023-07-08T16:39:29;31.20;62.70
15184;DHT22;7693;49.266;7.104;2023-07-08T16:41:55;31.30;62.80
15184;DHT22;7693;49.266;7.104;2023-07-08T16:44:22;31.40;62.40
15184;DHT22;7693;49.266;7.104;2023-07-08T16:46:48;31.40;62.50
15184;DHT22;7693;49.266;7.104;2023-07-08T16:49:14;31.40;62.50
15184;DHT22;7693;49.266;7.104;2023-07-08T16:51:41;31.40;61.90
15184;DHT22;7693;49.266;7.104;2023-07-08T16:56:35;31.40;62.30
15184;DHT22;7693;49.266;7.104;2023-07-08T16:59:00;31.40;62.20
15184;DHT22;7693;49.266;7.104;2023-07-08T17:01:27;31.40;62.30
15184;DHT22;7693;49.266;7.104;2023-07-08T17:03:54;31.40;61.90
15184;DHT22;7693;49.266;7.104;2023-07-08T17:06:22;31.40;62.60
15184;DHT22;7693;49.266;7.104;2023-07-08T17:08:47;31.60;64.50
15184;DHT22;7693;49.266;7.104;2023-07-08T17:11:13;31.90;64.10
15184;DHT22;7693;49.266;7.104;2023-07-08T17:13:39;31.90;63.00
15184;DHT22;7693;49.266;7.104;2023-07-08T17:16:19;31.90;63.50
15184;DHT22;7693;49.266;7.104;2023-07-08T17:18:54;32.00;63.10
15184;DHT22;7693;49.266;7.104;2023-07-08T17:21:20;31.80;61.60
15184;DHT22;7693;49.266;7.104;2023-07-08T17:23:46;31.70;62.10
15184;DHT22;7693;49.266;7.104;2023-07-08T17:26:11;31.60;62.00
15184;DHT22;7693;49.266;7.104;2023-07-08T17:28:37;31.50;61.80
15184;DHT22;7693;49.266;7.104;2023-07-08T17:31:04;31.40;61.90
15184;DHT22;7693;49.266;7.104;2023-07-08T17:33:29;31.30;61.80
15184;DHT22;7693;49.266;7.104;2023-07-08T17:35:55;31.30;61.80
15184;DHT22;7693;49.266;7.104;2023-07-08T17:38:47;31.20;61.90
15184;DHT22;7693;49.266;7.104;2023-07-08T17:41:18;31.10;62.10
15184;DHT22;7693;49.266;7.104;2023-07-08T17:43:45;31.10;61.90
15184;DHT22;7693;49.266;7.104;2023-07-08T17:46:25;31.10;62.10
15184;DHT22;7693;49.266;7.104;2023-07-08T17:48:52;31.10;62.10
15184;DHT22;7693;49.266;7.104;2023-07-08T17:51:22;31.10;62.40
15184;DHT22;7693;49.266;7.104;2023-07-08T17:53:49;31.10;62.40
15184;DHT22;7693;49.266;7.104;2023-07-08T17:56:28;31.10;62.70
15184;DHT22;7693;49.266;7.104;2023-07-08T17:58:55;31.10;63.40
15184;DHT22;7693;49.266;7.104;2023-07-08T18:01:23;31.10;62.30
15184;DHT22;7693;49.266;7.104;2023-07-08T18:03:49;31.00;62.40
15184;DHT22;7693;49.266;7.104;2023-07-08T18:06:15;31.00;62.30
15184;DHT22;7693;49.266;7.104;2023-07-08T18:08:41;30.90;62.70
15184;DHT22;7693;49.266;7.104;2023-07-08T18:11:12;30.90;62.90
15184;DHT22;7693;49.266;7.104;2023-07-08T18:13:39;30.80;62.90
15184;DHT22;7693;49.266;7.104;2023-07-08T18:16:13;30.70;62.90
15184;DHT22;7693;49.266;7.104;2023-07-08T18:18:39;30.70;63.00
15184;DHT22;7693;49.266;7.104;2023-07-08T18:21:13;30.60;63.00
15184;DHT22;7693;49.266;7.104;2023-07-08T18:23:39;30.60;63.30
15184;DHT22;7693;49.266;7.104;2023-07-08T18:26:05;30.40;62.90
15184;DHT22;7693;49.266;7.104;2023-07-08T18:28:32;30.40;63.40
15184;DHT22;7693;49.266;7.104;2023-07-08T18:30:58;30.30;63.50
15184;DHT22;7693;49.266;7.104;2023-07-08T18:33:23;30.20;63.60
15184;DHT22;7693;49.266;7.104;2023-07-08T18:35:50;30.10;63.70
15184;DHT22;7693;49.266;7.104;2023-07-08T18:38:15;30.00;63.70
15184;DHT22;7693;49.266;7.104;2023-07-08T18:40:42;30.00;63.80
15184;DHT22;7693;49.266;7.104;2023-07-08T18:45:43;29.80;64.00
15184;DHT22;7693;49.266;7.104;2023-07-08T18:48:13;29.70;64.10
15184;DHT22;7693;49.266;7.104;2023-07-08T18:50:40;29.60;64.30
15184;DHT22;7693;49.266;7.104;2023-07-08T18:53:16;29.60;64.50
15184;DHT22;7693;49.266;7.104;2023-07-08T18:55:43;29.50;64.60
15184;DHT22;7693;49.266;7.104;2023-07-08T18:58:13;29.40;64.70
15184;DHT22;7693;49.266;7.104;2023-07-08T19:00:40;29.30;64.30
15184;DHT22;7693;49.266;7.104;2023-07-08T19:05:42;29.00;63.70
15184;DHT22;7693;49.266;7.104;2023-07-08T19:08:08;28.80;63.70
15184;DHT22;7693;49.266;7.104;2023-07-08T19:10:34;28.70;63.70
15184;DHT22;7693;49.266;7.104;2023-07-08T19:12:59;28.50;63.40
15184;DHT22;7693;49.266;7.104;2023-07-08T19:15:27;28.40;63.50
15184;DHT22;7693;49.266;7.104;2023-07-08T19:17:54;28.20;63.70
15184;DHT22;7693;49.266;7.104;2023-07-08T19:20:30;28.10;63.90
15184;DHT22;7693;49.266;7.104;2023-07-08T19:22:57;28.00;64.00
15184;DHT22;7693;49.266;7.104;2023-07-08T19:25:25;27.90;64.00
15184;DHT22;7693;49.266;7.104;2023-07-08T19:27:52;27.80;64.20
15184;DHT22;7693;49.266;7.104;2023-07-08T19:30:19;27.70;64.30
15184;DHT22;7693;49.266;7.104;2023-07-08T19:32:50;27.60;64.60
15184;DHT22;7693;49.266;7.104;2023-07-08T19:35:22;27.60;64.90
15184;DHT22;7693;49.266;7.104;2023-07-08T19:37:49;27.50;65.00
15184;DHT22;7693;49.266;7.104;2023-07-08T19:40:18;27.50;65.00
15184;DHT22;7693;49.266;7.104;2023-07-08T19:42:46;27.40;65.00
15184;DHT22;7693;49.266;7.104;2023-07-08T19:45:26;27.40;65.10
15184;DHT22;7693;49.266;7.104;2023-07-08T19:47:53;27.30;65.30
15184;DHT22;7693;49.266;7.104;2023-07-08T19:50:21;27.20;65.30
15184;DHT22;7693;49.266;7.104;2023-07-08T19:52:48;27.20;65.60
15184;DHT22;7693;49.266;7.104;2023-07-08T19:55:15;27.20;65.50
15184;DHT22;7693;49.266;7.104;2023-07-08T20:00:24;27.00;65.70
15184;DHT22;7693;49.266;7.104;2023-07-08T20:02:51;27.00;65.90
15184;DHT22;7693;49.266;7.104;2023-07-08T20:05:18;27.00;66.20
15184;DHT22;7693;49.266;7.104;2023-07-08T20:07:44;26.90;66.20
15184;DHT22;7693;49.266;7.104;2023-07-08T20:10:16;26.90;66.20
15184;DHT22;7693;49.266;7.104;2023-07-08T20:12:42;26.80;66.50
15184;DHT22;7693;49.266;7.104;2023-07-08T20:15:09;26.80;66.50
15184;DHT22;7693;49.266;7.104;2023-07-08T20:17:35;26.70;66.50
15184;DHT22;7693;49.266;7.104;2023-07-08T20:20:01;26.60;66.50
15184;DHT22;7693;49.266;7.104;2023-07-08T20:22:26;26.50;66.70
15184;DHT22;7693;49.266;7.104;2023-07-08T20:24:52;26.40;66.80
15184;DHT22;7693;49.266;7.104;2023-07-08T20:27:19;26.40;67.10
15184;DHT22;7693;49.266;7.104;2023-07-08T20:29:46;26.30;67.30
15184;DHT22;7693;49.266;7.104;2023-07-08T20:32:14;26.30;67.50
15184;DHT22;7693;49.266;7.104;2023-07-08T20:34:40;26.20;67.60
15184;DHT22;7693;49.266;7.104;2023-07-08T20:37:13;26.10;67.50
15184;DHT22;7693;49.266;7.104;2023-07-08T20:39:39;26.10;67.90
15184;DHT22;7693;49.266;7.104;2023-07-08T20:42:07;26.00;67.90
15184;DHT22;7693;49.266;7.104;2023-07-08T20:44:35;25.90;68.00
15184;DHT22;7693;49.266;7.104;2023-07-08T20:47:00;25.90;68.20
15184;DHT22;7693;49.266;7.104;2023-07-08T20:49:26;25.80;68.30
15184;DHT22;7693;49.266;7.104;2023-07-08T20:51:52;25.80;68.40
15184;DHT22;7693;49.266;7.104;2023-07-08T20:54:17;25.80;68.60
15184;DHT22;7693;49.266;7.104;2023-07-08T20:56:43;25.70;68.70
15184;DHT22;7693;49.266;7.104;2023-07-08T20:59:19;25.70;68.90
15184;DHT22;7693;49.266;7.104;2023-07-08T21:01:45;25.60;69.30
15184;DHT22;7693;49.266;7.104;2023-07-08T21:04:10;25.50;69.30
15184;DHT22;7693;49.266;7.104;2023-07-08T21:06:36;25.50;69.40
15184;DHT22;7693;49.266;7.104;2023-07-08T21:09:03;25.40;69.50
15184;DHT22;7693;49.266;7.104;2023-07-08T21:11:29;25.40;70.50
15184;DHT22;7693;49.266;7.104;2023-07-08T21:13:54;25.40;69.80
15184;DHT22;7693;49.266;7.104;2023-07-08T21:16:22;25.30;70.00
15184;DHT22;7693;49.266;7.104;2023-07-08T21:18:49;25.30;70.20
15184;DHT22;7693;49.266;7.104;2023-07-08T21:21:16;25.30;70.40
15184;DHT22;7693;49.266;7.104;2023-07-08T21:23:42;25.20;70.50
15184;DHT22;7693;49.266;7.104;2023-07-08T21:26:17;25.20;70.50
15184;DHT22;7693;49.266;7.104;2023-07-08T21:28:45;25.10;70.90
15184;DHT22;7693;49.266;7.104;2023-07-08T21:31:13;25.10;71.00
15184;DHT22;7693;49.266;7.104;2023-07-08T21:33:38;25.00;71.10
15184;DHT22;7693;49.266;7.104;2023-07-08T21:36:22;25.00;71.20
15184;DHT22;7693;49.266;7.104;2023-07-08T21:38:49;25.00;71.60
15184;DHT22;7693;49.266;7.104;2023-07-08T21:41:15;24.90;71.50
15184;DHT22;7693;49.266;7.104;2023-07-08T21:43:41;24.90;71.70
15184;DHT22;7693;49.266;7.104;2023-07-08T21:46:07;24.90;71.80
15184;DHT22;7693;49.266;7.104;2023-07-08T21:48:33;24.90;72.00
15184;DHT22;7693;49.266;7.104;2023-07-08T21:50:59;24.80;72.10
15184;DHT22;7693;49.266;7.104;2023-07-08T21:53:29;24.80;72.40
15184;DHT22;7693;49.266;7.104;2023-07-08T21:55:55;24.80;72.70
15184;DHT22;7693;49.266;7.104;2023-07-08T21:58:22;24.70;72.50
15184;DHT22;7693;49.266;7.104;2023-07-08T22:00:49;24.60;72.70
15184;DHT22;7693;49.266;7.104;2023-07-08T22:03:17;24.60;72.90
15184;DHT22;7693;49.266;7.104;2023-07-08T22:05:44;24.60;73.20
15184;DHT22;7693;49.266;7.104;2023-07-08T22:08:15;24.50;73.30
15184;DHT22;7693;49.266;7.104;2023-07-08T22:10:49;24.50;73.60
15184;DHT22;7693;49.266;7.104;2023-07-08T22:13:36;24.50;73.70
15184;DHT22;7693;49.266;7.104;2023-07-08T22:16:08;24.40;74.30
15184;DHT22;7693;49.266;7.104;2023-07-08T22:18:34;24.40;74.00
15184;DHT22;7693;49.266;7.104;2023-07-08T22:21:09;24.40;74.00
15184;DHT22;7693;49.266;7.104;2023-07-08T22:23:37;24.30;74.40
15184;DHT22;7693;49.266;7.104;2023-07-08T22:26:02;24.20;74.30
